Time;durP1;ratioP1;P1;durP2;ratioP2;P2;SDS_P1;SDS_P2;PMS_P1;PMS_P2;Temp;Humidity;BMP_temperature;BMP_pressure;BME280_temperature;BME280_humidity;BME280_pressure;Samples;Min_cycle;Max_cycle;Signal;HPM_P1;HPM_P2
2021/10/06 00:01:02;;;;;;;8.90;1.40;;;12.60;99.90;;;;;;5055310;28;20972;-82
2021/10/06 00:03:29;;;;;;;9.93;1.40;;;12.60;99.90;;;;;;5054528;28;20452;-83
2021/10/06 00:05:55;;;;;;;13.03;2.70;;;12.60;99.90;;;;;;5053798;28;20977;-82
2021/10/06 00:08:22;;;;;;;11.20;1.70;;;12.50;99.90;;;;;;5051908;28;20458;-83
2021/10/06 00:10:49;;;;;;;9.83;1.80;;;12.50;99.90;;;;;;5054374;28;20490;-82
2021/10/06 00:13:16;;;;;;;15.63;2.37;;;12.50;99.90;;;;;;5055658;28;20853;-82
2021/10/06 00:15:46;;;;;;;9.53;1.50;;;12.50;99.90;;;;;;5054151;28;20452;-82
2021/10/06 00:18:13;;;;;;;10.07;1.87;;;12.50;99.90;;;;;;5052656;28;20801;-82
2021/10/06 00:20:40;;;;;;;9.33;1.67;;;12.40;99.90;;;;;;5053896;28;20472;-83
2021/10/06 00:23:07;;;;;;;10.87;1.70;;;12.40;99.90;;;;;;5056963;28;20447;-83
2021/10/06 00:25:34;;;;;;;16.13;2.17;;;12.50;99.90;;;;;;5056630;28;20459;-84
2021/10/06 00:28:01;;;;;;;12.80;1.80;;;12.50;99.90;;;;;;5047762;28;20458;-84
2021/10/06 00:30:27;;;;;;;9.90;1.90;;;12.50;99.90;;;;;;5057241;28;20506;-82
2021/10/06 00:32:56;;;;;;;9.63;1.70;;;12.40;99.90;;;;;;5057061;28;20481;-84
2021/10/06 00:35:23;;;;;;;10.13;1.70;;;12.30;99.90;;;;;;5058083;28;20462;-84
2021/10/06 00:37:49;;;;;;;8.90;1.53;;;12.30;99.90;;;;;;5056598;28;20832;-83
2021/10/06 00:40:16;;;;;;;8.87;1.50;;;12.30;99.90;;;;;;5057440;28;20568;-82
2021/10/06 00:42:43;;;;;;;8.30;1.60;;;12.30;99.90;;;;;;5057567;28;20451;-83
2021/10/06 00:45:11;;;;;;;11.37;1.50;;;12.30;99.90;;;;;;5065604;28;20442;-82
2021/10/06 00:47:38;;;;;;;11.63;1.70;;;12.30;99.90;;;;;;5054386;28;20440;-82
2021/10/06 00:50:07;;;;;;;9.00;1.50;;;12.30;99.90;;;;;;5054157;28;20459;-84
2021/10/06 00:52:34;;;;;;;10.17;1.70;;;12.20;99.90;;;;;;5052872;28;20492;-83
2021/10/06 00:55:01;;;;;;;10.07;1.73;;;12.30;99.90;;;;;;5053586;28;20448;-83
2021/10/06 00:57:28;;;;;;;9.40;1.83;;;12.20;99.90;;;;;;5053218;28;20808;-84
2021/10/06 00:59:55;;;;;;;9.30;1.43;;;12.20;99.90;;;;;;5052409;28;20467;-84
2021/10/06 01:02:22;;;;;;;10.93;1.67;;;12.10;99.90;;;;;;5046631;28;20461;-83
2021/10/06 01:04:50;;;;;;;10.60;1.60;;;12.10;99.90;;;;;;5053740;28;20462;-83
2021/10/06 01:07:19;;;;;;;17.80;1.90;;;12.10;99.90;;;;;;5054304;28;20455;-83
2021/10/06 01:09:46;;;;;;;10.20;1.90;;;12.10;99.90;;;;;;5045417;28;20497;-82
2021/10/06 01:12:13;;;;;;;11.30;2.07;;;12.10;99.90;;;;;;5054302;28;20543;-83
2021/10/06 01:14:41;;;;;;;11.00;1.60;;;12.10;99.90;;;;;;5041898;28;20488;-83
2021/10/06 01:17:08;;;;;;;11.87;1.80;;;12.10;99.90;;;;;;5053733;28;20448;-83
2021/10/06 01:19:34;;;;;;;11.63;1.57;;;12.10;99.90;;;;;;5054841;28;20459;-81
2021/10/06 01:22:03;;;;;;;10.60;1.40;;;12.10;99.90;;;;;;5053583;28;20917;-82
2021/10/06 01:24:30;;;;;;;9.77;1.47;;;12.10;99.90;;;;;;5055845;28;20451;-82
2021/10/06 01:26:57;;;;;;;8.60;1.30;;;12.10;99.90;;;;;;5058492;28;20458;-82
2021/10/06 01:29:25;;;;;;;10.90;1.50;;;12.10;99.90;;;;;;5062411;28;20462;-83
2021/10/06 01:31:51;;;;;;;11.50;2.00;;;12.10;99.90;;;;;;5065947;28;20478;-82
2021/10/06 01:34:19;;;;;;;9.47;2.53;;;12.10;99.90;;;;;;5067569;28;20487;-82
2021/10/06 01:36:48;;;;;;;13.50;2.27;;;12.10;99.90;;;;;;5070288;28;20468;-81
2021/10/06 01:39:17;;;;;;;10.97;1.77;;;12.10;99.90;;;;;;5041624;28;20472;-82
2021/10/06 01:41:45;;;;;;;9.03;1.40;;;12.10;99.90;;;;;;5058197;28;20555;-83
2021/10/06 01:44:13;;;;;;;12.10;1.23;;;12.10;99.90;;;;;;5060760;28;20459;-86
2021/10/06 01:46:40;;;;;;;11.67;1.60;;;12.00;99.90;;;;;;5056188;28;20525;-79
2021/10/06 01:49:07;;;;;;;11.73;1.73;;;12.00;99.90;;;;;;5051302;28;20470;-81
2021/10/06 01:51:34;;;;;;;17.20;2.17;;;12.10;99.90;;;;;;5061203;28;20482;-81
2021/10/06 01:54:03;;;;;;;9.00;1.47;;;12.10;99.90;;;;;;5059626;28;20489;-81
2021/10/06 01:56:31;;;;;;;10.63;1.60;;;12.10;99.90;;;;;;5049647;28;20514;-82
2021/10/06 01:58:58;;;;;;;11.07;1.90;;;12.00;99.90;;;;;;5059842;28;20458;-81
2021/10/06 02:01:25;;;;;;;10.27;1.47;;;12.00;99.90;;;;;;5061479;28;20472;-80
2021/10/06 02:03:52;;;;;;;12.20;1.80;;;12.00;99.90;;;;;;5060306;28;20458;-84
2021/10/06 02:06:20;;;;;;;10.50;1.63;;;12.00;99.90;;;;;;5063326;28;20459;-84
2021/10/06 02:08:46;;;;;;;10.23;1.80;;;12.00;99.90;;;;;;5063723;28;20542;-84
2021/10/06 02:11:13;;;;;;;9.57;1.73;;;12.00;99.90;;;;;;5060767;28;21065;-80
2021/10/06 02:13:42;;;;;;;9.43;1.60;;;12.00;99.90;;;;;;5061113;28;20494;-84
2021/10/06 02:16:08;;;;;;;10.27;1.70;;;11.90;99.90;;;;;;5049854;28;20452;-81
2021/10/06 02:18:35;;;;;;;9.33;1.80;;;11.90;99.90;;;;;;5054892;28;20452;-83
2021/10/06 02:21:02;;;;;;;11.30;2.13;;;12.00;99.90;;;;;;5058971;28;20475;-81
2021/10/06 02:23:29;;;;;;;9.10;1.83;;;11.90;99.90;;;;;;5059541;28;20451;-82
2021/10/06 02:25:56;;;;;;;11.03;1.93;;;11.90;99.90;;;;;;5058488;28;20559;-82
2021/10/06 02:28:23;;;;;;;10.90;1.83;;;11.80;99.90;;;;;;5059417;28;20444;-84
2021/10/06 02:30:51;;;;;;;9.47;1.40;;;11.90;99.90;;;;;;5058827;28;20485;-82
2021/10/06 02:33:18;;;;;;;11.80;1.90;;;11.90;99.90;;;;;;5059424;28;20867;-83
2021/10/06 02:35:44;;;;;;;10.90;1.73;;;11.90;99.90;;;;;;5059073;28;20447;-82
2021/10/06 02:38:12;;;;;;;12.57;1.83;;;11.80;99.90;;;;;;5059536;28;20451;-82
2021/10/06 02:40:39;;;;;;;14.50;2.27;;;11.80;99.90;;;;;;5051960;28;20474;-82
2021/10/06 02:43:06;;;;;;;10.60;1.80;;;11.80;99.90;;;;;;5039673;28;20618;-81
2021/10/06 02:45:33;;;;;;;12.40;2.40;;;11.90;99.90;;;;;;5064345;28;20448;-81
2021/10/06 02:48:01;;;;;;;14.30;2.63;;;11.80;99.90;;;;;;5060891;28;20486;-82
2021/10/06 02:50:28;;;;;;;9.53;1.80;;;11.90;99.90;;;;;;5055877;28;20475;-81
2021/10/06 02:52:54;;;;;;;13.10;2.20;;;11.90;99.90;;;;;;5055506;28;20978;-81
2021/10/06 02:55:22;;;;;;;8.03;1.40;;;11.90;99.90;;;;;;5055063;28;20448;-82
2021/10/06 02:57:49;;;;;;;10.03;1.73;;;12.00;99.90;;;;;;5054868;28;20456;-79
2021/10/06 03:00:17;;;;;;;11.67;2.03;;;12.00;99.90;;;;;;5057301;28;20471;-80
2021/10/06 03:02:44;;;;;;;12.17;2.10;;;11.80;99.90;;;;;;5041752;28;20443;-81
2021/10/06 03:05:13;;;;;;;10.73;2.00;;;11.90;99.90;;;;;;5056542;28;20982;-81
2021/10/06 03:07:41;;;;;;;10.43;2.03;;;11.90;99.90;;;;;;5057339;28;20941;-80
2021/10/06 03:10:10;;;;;;;10.63;1.70;;;11.90;99.90;;;;;;5058320;28;20464;-81
2021/10/06 03:12:37;;;;;;;13.57;2.20;;;12.00;99.90;;;;;;5058061;28;20976;-78
2021/10/06 03:15:05;;;;;;;11.63;2.23;;;12.00;99.90;;;;;;5061424;28;20502;-78
2021/10/06 03:17:32;;;;;;;17.37;2.37;;;12.10;99.90;;;;;;5062701;28;20476;-79
2021/10/06 03:19:59;;;;;;;16.70;2.30;;;12.00;99.90;;;;;;5060420;28;20517;-81
2021/10/06 03:22:27;;;;;;;16.83;2.00;;;12.10;99.90;;;;;;5058415;28;20546;-81
2021/10/06 03:24:54;;;;;;;10.93;2.53;;;12.10;99.90;;;;;;5039374;28;20440;-83
2021/10/06 03:27:21;;;;;;;14.00;2.80;;;12.10;99.90;;;;;;5056209;28;20463;-81
2021/10/06 03:29:48;;;;;;;12.83;2.13;;;12.10;99.90;;;;;;5058378;28;20482;-80
2021/10/06 03:32:14;;;;;;;8.80;1.87;;;12.00;99.90;;;;;;5072808;22;20499;-85
2021/10/06 03:34:41;;;;;;;14.73;2.17;;;12.10;99.90;;;;;;5056359;28;20483;-85
2021/10/06 03:37:08;;;;;;;10.70;1.80;;;12.10;99.90;;;;;;5062296;28;20457;-84
2021/10/06 03:39:37;;;;;;;12.30;2.73;;;12.30;99.90;;;;;;5038050;28;22098;-87
2021/10/06 03:42:04;;;;;;;10.80;1.70;;;12.30;99.90;;;;;;5024735;28;20467;-84
2021/10/06 03:44:31;;;;;;;10.20;1.50;;;12.70;99.90;;;;;;5035050;28;20523;-83
2021/10/06 03:46:58;;;;;;;17.57;1.83;;;12.80;99.90;;;;;;5030931;28;20459;-84
2021/10/06 03:49:25;;;;;;;10.03;1.67;;;12.80;99.90;;;;;;5050825;28;20458;-85
2021/10/06 03:51:51;;;;;;;14.00;2.10;;;12.90;99.90;;;;;;5034791;28;20470;-86
2021/10/06 03:54:18;;;;;;;11.97;2.00;;;13.10;99.90;;;;;;5015989;28;20500;-86
2021/10/06 03:56:46;;;;;;;11.30;2.20;;;13.10;99.90;;;;;;5032024;28;21205;-84
2021/10/06 03:59:13;;;;;;;12.87;1.80;;;13.20;99.90;;;;;;5033602;28;20915;-82
2021/10/06 04:01:40;;;;;;;11.20;1.90;;;13.30;99.90;;;;;;5034630;28;20468;-86
2021/10/06 04:04:07;;;;;;;11.10;1.67;;;13.20;99.90;;;;;;5034309;28;20822;-83
2021/10/06 04:06:34;;;;;;;14.53;1.90;;;13.20;99.90;;;;;;5033465;28;20466;-87
2021/10/06 04:09:00;;;;;;;11.40;1.70;;;13.10;99.90;;;;;;5034387;28;20531;-83
2021/10/06 04:11:27;;;;;;;11.37;1.53;;;13.00;99.90;;;;;;5034192;28;20546;-81
2021/10/06 04:13:55;;;;;;;13.43;2.73;;;13.00;99.90;;;;;;5035034;28;20513;-86
2021/10/06 04:16:22;;;;;;;11.10;2.33;;;13.10;99.90;;;;;;5033671;28;20460;-84
2021/10/06 04:18:49;;;;;;;9.70;1.97;;;13.00;99.90;;;;;;5034635;28;20535;-84
2021/10/06 04:21:16;;;;;;;12.40;2.27;;;13.00;99.90;;;;;;5033305;28;20491;-82
2021/10/06 04:23:43;;;;;;;10.97;1.63;;;13.00;99.90;;;;;;5034699;28;20463;-87
2021/10/06 04:26:09;;;;;;;13.13;2.43;;;12.90;99.90;;;;;;5026928;28;20651;-84
2021/10/06 04:28:36;;;;;;;11.87;1.80;;;12.90;99.90;;;;;;5013554;28;20454;-83
2021/10/06 04:31:04;;;;;;;11.77;2.03;;;12.90;99.90;;;;;;5026668;28;20487;-80
2021/10/06 04:33:31;;;;;;;13.37;1.80;;;12.90;99.90;;;;;;5033683;28;20524;-83
2021/10/06 04:35:58;;;;;;;11.23;1.97;;;12.90;99.90;;;;;;5029250;28;20460;-84
2021/10/06 04:38:25;;;;;;;13.53;1.80;;;13.00;99.90;;;;;;5027514;28;20470;-84
2021/10/06 04:40:52;;;;;;;10.70;2.07;;;12.80;99.90;;;;;;5042194;28;20484;-85
2021/10/06 04:43:19;;;;;;;16.90;3.70;;;12.80;99.90;;;;;;5025535;28;20846;-83
2021/10/06 04:45:45;;;;;;;10.73;1.90;;;12.90;99.90;;;;;;5042755;28;21216;-82
2021/10/06 04:48:14;;;;;;;13.07;1.60;;;12.90;99.90;;;;;;5035786;28;20543;-83
2021/10/06 04:50:41;;;;;;;11.33;1.70;;;12.90;99.90;;;;;;5034099;28;20494;-82
2021/10/06 04:53:08;;;;;;;13.20;1.80;;;12.90;99.90;;;;;;5033693;28;20463;-86
2021/10/06 04:55:35;;;;;;;12.87;2.10;;;12.90;99.90;;;;;;5034182;28;20583;-86
2021/10/06 04:58:02;;;;;;;11.70;2.40;;;12.80;99.90;;;;;;5027446;28;20539;-87
2021/10/06 05:00:29;;;;;;;12.93;1.87;;;12.80;99.90;;;;;;5017595;28;20462;-86
2021/10/06 05:02:56;;;;;;;10.70;1.60;;;12.70;99.90;;;;;;5034745;28;20488;-84
2021/10/06 05:05:24;;;;;;;11.83;1.63;;;12.70;99.90;;;;;;5034157;28;20445;-86
2021/10/06 05:07:51;;;;;;;12.17;1.73;;;12.60;99.90;;;;;;5035776;28;20463;-85
2021/10/06 05:10:18;;;;;;;12.70;1.87;;;12.60;99.90;;;;;;5037328;28;20547;-85
2021/10/06 05:12:45;;;;;;;11.23;2.33;;;12.60;99.90;;;;;;5036136;28;20551;-85
2021/10/06 05:15:12;;;;;;;13.17;2.27;;;12.50;99.90;;;;;;5038577;28;20482;-85
2021/10/06 05:17:39;;;;;;;13.20;1.60;;;12.60;99.90;;;;;;5045658;28;20450;-86
2021/10/06 05:20:06;;;;;;;13.00;1.90;;;12.50;99.90;;;;;;5040950;28;20452;-86
2021/10/06 05:22:35;;;;;;;14.90;2.17;;;12.50;99.90;;;;;;5039897;28;20527;-87
2021/10/06 05:25:02;;;;;;;10.27;1.90;;;12.50;99.90;;;;;;5041713;28;20456;-87
2021/10/06 05:27:30;;;;;;;11.90;1.67;;;12.60;99.90;;;;;;5044983;28;20550;-86
2021/10/06 05:29:57;;;;;;;10.43;2.10;;;12.60;99.90;;;;;;5048982;28;20561;-86
2021/10/06 05:32:24;;;;;;;11.20;1.80;;;12.60;99.90;;;;;;5046971;28;20482;-87
2021/10/06 05:34:51;;;;;;;14.87;1.97;;;12.50;99.90;;;;;;5055057;28;21021;-85
2021/10/06 05:37:18;;;;;;;10.97;1.33;;;12.50;99.90;;;;;;5037555;28;20547;-88
2021/10/06 05:39:47;;;;;;;13.70;1.50;;;12.60;99.90;;;;;;5038335;28;20450;-86
2021/10/06 05:42:13;;;;;;;11.17;1.73;;;12.60;99.90;;;;;;5038601;28;20731;-86
2021/10/06 05:44:40;;;;;;;11.10;1.70;;;12.60;99.90;;;;;;5038424;28;20459;-88
2021/10/06 05:47:07;;;;;;;11.90;2.47;;;12.60;99.90;;;;;;5020815;28;20863;-84
2021/10/06 05:49:34;;;;;;;14.00;1.73;;;12.70;99.90;;;;;;5055521;28;20454;-85
2021/10/06 05:52:01;;;;;;;13.17;1.90;;;12.70;99.90;;;;;;5044898;28;20503;-87
2021/10/06 05:54:27;;;;;;;12.20;1.80;;;12.60;99.90;;;;;;5038100;28;20493;-85
2021/10/06 05:56:56;;;;;;;12.90;2.60;;;12.60;99.90;;;;;;5036965;28;20460;-85
2021/10/06 05:59:22;;;;;;;11.20;2.17;;;12.60;99.90;;;;;;5036783;28;20964;-86
2021/10/06 06:01:49;;;;;;;11.40;1.70;;;12.70;99.90;;;;;;5038159;28;20551;-85
2021/10/06 06:04:17;;;;;;;11.80;1.77;;;12.80;99.90;;;;;;5037552;28;20450;-84
2021/10/06 06:06:44;;;;;;;12.80;2.03;;;12.70;99.90;;;;;;5037551;28;20459;-86
2021/10/06 06:09:12;;;;;;;12.27;1.90;;;12.60;99.90;;;;;;5039944;28;20454;-85
2021/10/06 06:11:39;;;;;;;13.33;2.10;;;12.70;99.90;;;;;;5035763;28;20469;-84
2021/10/06 06:14:07;;;;;;;10.23;1.57;;;12.70;99.90;;;;;;5035713;28;20448;-86
2021/10/06 06:16:34;;;;;;;11.57;1.57;;;12.60;99.90;;;;;;5034302;28;20491;-84
2021/10/06 06:19:02;;;;;;;14.83;1.50;;;12.70;99.90;;;;;;5034570;28;20454;-84
2021/10/06 06:21:28;;;;;;;15.67;1.80;;;12.70;99.90;;;;;;5035785;28;20550;-86
2021/10/06 06:23:55;;;;;;;10.50;1.40;;;12.70;99.90;;;;;;5035513;28;20455;-85
2021/10/06 06:26:22;;;;;;;22.07;2.20;;;12.70;99.90;;;;;;5035122;28;20528;-84
2021/10/06 06:28:49;;;;;;;9.77;1.63;;;12.70;99.90;;;;;;5041385;28;20543;-84
2021/10/06 06:31:18;;;;;;;12.10;1.60;;;12.70;99.90;;;;;;5033169;28;20504;-87
2021/10/06 06:33:47;;;;;;;11.77;1.77;;;12.70;99.90;;;;;;5031915;28;20538;-85
2021/10/06 06:36:14;;;;;;;12.77;1.80;;;12.70;99.90;;;;;;5026455;28;21036;-84
2021/10/06 06:38:41;;;;;;;12.60;1.83;;;12.70;99.90;;;;;;5017904;28;20529;-84
2021/10/06 06:41:08;;;;;;;9.70;1.60;;;12.80;99.90;;;;;;5035263;28;20539;-84
2021/10/06 06:43:35;;;;;;;11.37;1.60;;;12.90;99.90;;;;;;5035458;28;20829;-84
2021/10/06 06:46:02;;;;;;;12.53;2.00;;;12.80;99.90;;;;;;5033814;28;20443;-83
2021/10/06 06:48:30;;;;;;;11.60;2.63;;;12.80;99.90;;;;;;5042518;28;20641;-87
2021/10/06 06:50:59;;;;;;;12.93;1.97;;;12.70;99.90;;;;;;5035914;28;20481;-86
2021/10/06 06:53:27;;;;;;;8.20;1.37;;;12.60;99.90;;;;;;5034286;28;20850;-85
2021/10/06 06:55:54;;;;;;;11.73;1.93;;;12.50;99.90;;;;;;5032294;28;20493;-87
2021/10/06 06:58:21;;;;;;;12.03;1.70;;;12.50;99.90;;;;;;5032060;28;20472;-85
2021/10/06 07:00:49;;;;;;;12.00;2.03;;;12.50;99.90;;;;;;5029900;28;20480;-85
2021/10/06 07:03:16;;;;;;;12.40;2.20;;;12.50;99.90;;;;;;5044261;28;21038;-85
2021/10/06 07:05:44;;;;;;;14.13;2.20;;;12.40;99.90;;;;;;5033431;28;20539;-84
2021/10/06 07:08:11;;;;;;;14.43;2.37;;;12.30;99.90;;;;;;5046044;28;20443;-83
2021/10/06 07:10:38;;;;;;;10.83;2.17;;;12.10;99.90;;;;;;5039422;28;20452;-81
2021/10/06 07:13:05;;;;;;;14.23;2.63;;;12.00;99.90;;;;;;5020299;28;20487;-83
2021/10/06 07:15:33;;;;;;;12.83;2.70;;;12.00;99.90;;;;;;5034273;28;20487;-81
2021/10/06 07:18:00;;;;;;;13.50;2.57;;;12.00;99.90;;;;;;5024315;28;20458;-83
2021/10/06 07:20:27;;;;;;;13.23;2.27;;;12.00;99.90;;;;;;5025669;28;20861;-82
2021/10/06 07:22:55;;;;;;;14.30;2.90;;;12.00;99.90;;;;;;5026093;28;20648;-81
2021/10/06 07:25:22;;;;;;;9.37;2.30;;;11.80;99.90;;;;;;5032928;28;20460;-81
2021/10/06 07:27:49;;;;;;;13.63;2.10;;;11.70;99.90;;;;;;5030673;28;20467;-83
2021/10/06 07:30:16;;;;;;;9.10;1.93;;;11.70;99.90;;;;;;5031759;28;20472;-83
2021/10/06 07:32:44;;;;;;;9.27;1.93;;;11.60;99.90;;;;;;5027836;28;20508;-83
2021/10/06 07:35:10;;;;;;;9.50;2.50;;;11.60;99.90;;;;;;5034886;28;20519;-84
2021/10/06 07:37:38;;;;;;;14.43;2.37;;;11.60;99.90;;;;;;5035228;28;20483;-82
2021/10/06 07:40:07;;;;;;;9.47;2.40;;;11.60;99.90;;;;;;5039634;28;20461;-83
2021/10/06 07:42:34;;;;;;;12.43;2.03;;;11.60;99.90;;;;;;5042647;28;20516;-84
2021/10/06 07:45:01;;;;;;;13.43;2.07;;;11.70;99.90;;;;;;5041867;28;20455;-85
2021/10/06 07:47:28;;;;;;;10.60;2.57;;;11.60;99.90;;;;;;5037502;28;20482;-83
2021/10/06 07:49:55;;;;;;;13.20;1.90;;;11.60;99.90;;;;;;5042824;28;20459;-86
2021/10/06 07:52:22;;;;;;;16.33;1.90;;;11.60;99.90;;;;;;5044030;28;20481;-81
2021/10/06 07:54:49;;;;;;;10.00;1.60;;;12.60;99.90;;;;;;5036640;28;20476;-82
2021/10/06 07:57:17;;;;;;;9.40;1.60;;;13.90;99.90;;;;;;5033868;28;20457;-82
2021/10/06 07:59:44;;;;;;;11.23;1.67;;;13.90;99.90;;;;;;5036146;28;20457;-84
2021/10/06 08:02:11;;;;;;;9.17;1.63;;;13.10;99.90;;;;;;5028303;28;20532;-84
2021/10/06 08:04:38;;;;;;;15.30;2.53;;;12.70;99.90;;;;;;5018919;28;20837;-84
2021/10/06 08:07:05;;;;;;;11.67;1.90;;;12.50;99.90;;;;;;5034196;28;20546;-86
2021/10/06 08:09:32;;;;;;;9.30;1.53;;;12.50;99.90;;;;;;5035918;28;20463;-84
2021/10/06 08:11:59;;;;;;;10.60;2.43;;;12.50;99.90;;;;;;5037405;28;21052;-86
2021/10/06 08:14:29;;;;;;;9.77;1.77;;;12.40;99.90;;;;;;5015639;28;20970;-84
2021/10/06 08:16:56;;;;;;;10.33;1.60;;;12.40;99.90;;;;;;5035387;28;20579;-84
2021/10/06 08:19:23;;;;;;;11.73;2.20;;;12.40;99.90;;;;;;5047405;28;20458;-84
2021/10/06 08:21:49;;;;;;;10.10;1.50;;;12.40;99.90;;;;;;5050624;28;20544;-84
2021/10/06 08:24:16;;;;;;;9.83;1.97;;;12.40;99.90;;;;;;5029778;28;20491;-83
2021/10/06 08:26:45;;;;;;;14.57;1.70;;;12.40;99.90;;;;;;5046881;28;20481;-83
2021/10/06 08:29:12;;;;;;;9.70;1.80;;;12.40;99.90;;;;;;5054822;28;20448;-83
2021/10/06 08:31:40;;;;;;;12.73;1.93;;;12.40;99.90;;;;;;5052520;28;20866;-85
2021/10/06 08:34:07;;;;;;;12.33;1.80;;;12.40;99.90;;;;;;5019277;28;20449;-83
2021/10/06 08:36:34;;;;;;;11.30;1.60;;;12.40;99.90;;;;;;5018087;28;20487;-82
2021/10/06 08:39:02;;;;;;;9.50;1.67;;;12.40;99.90;;;;;;5014808;28;20488;-82
2021/10/06 08:41:31;;;;;;;13.33;1.83;;;12.20;99.90;;;;;;5016499;28;20565;-85
2021/10/06 08:43:58;;;;;;;10.13;1.60;;;12.20;99.90;;;;;;5039914;28;20468;-86
2021/10/06 08:46:27;;;;;;;9.70;1.70;;;12.10;99.90;;;;;;5050874;28;20440;-83
2021/10/06 08:48:56;;;;;;;10.27;2.20;;;12.10;99.90;;;;;;5054340;28;20462;-83
2021/10/06 08:51:24;;;;;;;13.90;2.10;;;12.10;99.90;;;;;;5059679;28;20448;-84
2021/10/06 08:53:52;;;;;;;11.63;2.60;;;12.00;99.90;;;;;;5047392;28;20543;-82
2021/10/06 08:56:21;;;;;;;8.70;1.73;;;12.10;99.90;;;;;;5051932;28;20612;-85
2021/10/06 08:58:49;;;;;;;9.73;2.17;;;12.10;99.90;;;;;;5048575;28;20460;-83
2021/10/06 09:01:26;;;;;;;8.10;1.70;;;12.10;99.90;;;;;;5038284;28;20573;-86
2021/10/06 09:03:57;;;;;;;11.43;1.87;;;12.10;99.90;;;;;;5027627;28;20455;-84
2021/10/06 09:06:35;;;;;;;10.47;1.53;;;12.10;99.90;;;;;;5056317;28;20470;-85
2021/10/06 09:09:14;;;;;;;9.33;2.00;;;12.10;99.90;;;;;;5043651;28;20846;-85
2021/10/06 09:11:42;;;;;;;13.33;1.87;;;12.20;99.90;;;;;;5053186;28;20456;-87
2021/10/06 09:14:09;;;;;;;11.43;2.43;;;12.20;99.90;;;;;;5058280;28;20805;-82
2021/10/06 09:16:40;;;;;;;11.80;1.93;;;12.20;99.90;;;;;;5067174;28;20479;-81
2021/10/06 09:19:10;;;;;;;11.50;1.90;;;12.20;99.90;;;;;;5061415;28;20455;-84
2021/10/06 09:21:53;;;;;;;10.30;2.23;;;12.10;99.90;;;;;;5059228;28;20474;-84
2021/10/06 09:24:20;;;;;;;13.77;2.63;;;12.10;99.90;;;;;;5022763;28;20486;-81
2021/10/06 09:26:47;;;;;;;11.43;1.73;;;12.20;99.90;;;;;;5022365;28;20472;-82
2021/10/06 09:29:21;;;;;;;14.40;2.50;;;12.20;99.90;;;;;;5034937;28;20451;-82
2021/10/06 09:31:48;;;;;;;12.73;2.20;;;12.30;99.90;;;;;;5044562;28;20482;-85
2021/10/06 09:34:17;;;;;;;9.83;1.87;;;12.30;99.90;;;;;;5049233;28;20523;-85
2021/10/06 09:36:44;;;;;;;8.77;2.13;;;12.40;99.90;;;;;;5058867;28;20523;-82
2021/10/06 09:39:13;;;;;;;11.10;1.97;;;12.50;99.90;;;;;;5041252;28;20844;-85
2021/10/06 09:41:42;;;;;;;12.43;1.47;;;12.50;99.90;;;;;;5039037;28;20484;-83
2021/10/06 09:44:14;;;;;;;11.50;1.93;;;12.60;99.90;;;;;;5042607;28;20459;-84
2021/10/06 09:46:52;;;;;;;11.30;1.97;;;12.70;99.90;;;;;;5042441;28;20529;-83
2021/10/06 09:49:23;;;;;;;11.70;2.10;;;12.70;99.90;;;;;;5039313;28;20514;-83
2021/10/06 09:51:52;;;;;;;9.80;1.77;;;12.80;99.90;;;;;;5038711;28;20479;-82
2021/10/06 09:54:20;;;;;;;12.73;1.70;;;12.80;99.90;;;;;;5040943;28;20468;-83
2021/10/06 09:56:50;;;;;;;11.77;3.17;;;12.70;99.90;;;;;;5038590;28;20514;-85
2021/10/06 09:59:17;;;;;;;10.20;2.60;;;12.70;99.90;;;;;;5032295;28;20450;-84
2021/10/06 10:01:47;;;;;;;18.17;5.80;;;12.70;99.90;;;;;;5034730;28;20474;-81
2021/10/06 10:04:15;;;;;;;14.47;1.93;;;12.70;99.90;;;;;;5038464;28;20449;-82
2021/10/06 10:06:46;;;;;;;11.40;2.03;;;12.80;99.90;;;;;;5031013;28;20450;-85
2021/10/06 10:09:13;;;;;;;11.00;1.90;;;12.70;99.90;;;;;;5031473;28;20436;-84
2021/10/06 10:11:42;;;;;;;10.97;2.10;;;12.70;99.90;;;;;;5052485;28;20483;-83
2021/10/06 10:14:09;;;;;;;9.60;1.90;;;12.70;99.90;;;;;;5053585;28;20478;-82
2021/10/06 10:16:39;;;;;;;11.13;1.80;;;12.70;99.90;;;;;;5047888;28;20483;-85
2021/10/06 10:19:10;;;;;;;13.27;1.90;;;12.70;99.90;;;;;;5051101;28;20505;-83
2021/10/06 10:21:41;;;;;;;13.80;2.07;;;12.70;99.90;;;;;;5048531;28;20546;-82
2021/10/06 10:24:14;;;;;;;11.13;2.30;;;12.70;99.90;;;;;;5030683;28;20475;-83
2021/10/06 10:27:01;;;;;;;9.50;2.00;;;12.70;99.90;;;;;;5043863;28;20453;-84
2021/10/06 10:29:36;;;;;;;9.30;1.50;;;12.70;99.90;;;;;;5047800;28;20467;-82
2021/10/06 10:32:08;;;;;;;8.13;1.40;;;12.70;99.90;;;;;;5045898;28;20516;-85
2021/10/06 10:35:04;;;;;;;7.43;1.20;;;12.80;99.90;;;;;;5025073;28;20954;-85
2021/10/06 10:38:05;;;;;;;8.57;1.20;;;12.70;99.90;;;;;;5039522;28;21016;-83
2021/10/06 10:40:37;;;;;;;8.23;1.53;;;12.70;99.90;;;;;;5039203;28;20480;-86
2021/10/06 10:43:08;;;;;;;8.30;1.27;;;12.70;99.90;;;;;;5037742;28;20894;-86
2021/10/06 10:45:38;;;;;;;9.63;1.30;;;12.60;99.90;;;;;;5043825;28;21027;-83
2021/10/06 10:48:06;;;;;;;9.20;1.30;;;14.10;99.90;;;;;;5042661;28;21043;-81
2021/10/06 10:50:41;;;;;;;8.17;1.27;;;14.40;99.90;;;;;;5033447;28;20463;-83
2021/10/06 10:53:08;;;;;;;10.43;1.50;;;14.80;99.90;;;;;;5046486;28;20817;-80
2021/10/06 10:55:52;;;;;;;8.03;1.23;;;15.20;99.90;;;;;;5044518;28;20827;-83
2021/10/06 10:58:27;;;;;;;8.70;1.27;;;14.20;99.90;;;;;;5016396;28;20474;-78
2021/10/06 11:00:54;;;;;;;8.70;1.13;;;13.60;99.90;;;;;;5045768;28;20493;-80
2021/10/06 11:03:21;;;;;;;9.23;1.20;;;13.20;99.90;;;;;;5049888;28;20538;-87
2021/10/06 11:05:49;;;;;;;7.80;1.63;;;13.00;99.90;;;;;;5039283;28;20449;-86
2021/10/06 11:08:24;;;;;;;8.80;1.47;;;12.90;99.90;;;;;;5036824;28;20869;-83
2021/10/06 11:11:24;;;;;;;10.10;1.40;;;12.70;99.90;;;;;;5035960;28;20479;-82
2021/10/06 11:13:52;;;;;;;7.50;1.30;;;12.50;99.90;;;;;;5043264;28;20515;-82
2021/10/06 11:16:21;;;;;;;10.13;1.63;;;12.60;99.90;;;;;;5040443;28;20477;-83
2021/10/06 11:18:51;;;;;;;9.50;1.40;;;12.60;99.90;;;;;;5042698;28;20536;-84
2021/10/06 11:21:31;;;;;;;9.17;2.37;;;12.60;99.90;;;;;;5030473;28;20474;-81
2021/10/06 11:23:58;;;;;;;10.17;1.40;;;12.60;99.90;;;;;;5027331;28;20459;-79
2021/10/06 11:26:34;;;;;;;8.50;1.57;;;12.60;99.90;;;;;;5038264;28;20532;-80
2021/10/06 11:29:07;;;;;;;10.97;1.50;;;12.70;99.90;;;;;;5040902;28;20456;-79
2021/10/06 11:31:36;;;;;;;8.93;2.60;;;12.80;99.90;;;;;;5045406;28;20500;-85
2021/10/06 11:34:07;;;;;;;10.77;1.73;;;12.80;99.90;;;;;;5038918;28;20463;-80
2021/10/06 11:36:35;;;;;;;9.67;1.60;;;12.70;99.90;;;;;;5046349;28;20555;-85
2021/10/06 11:39:08;;;;;;;8.40;1.90;;;12.70;99.90;;;;;;5043104;28;20563;-80
2021/10/06 11:41:41;;;;;;;11.00;1.80;;;12.70;99.90;;;;;;5035185;28;20526;-84
2021/10/06 11:44:15;;;;;;;10.10;2.40;;;12.70;99.90;;;;;;5031524;28;20544;-80
2021/10/06 11:46:44;;;;;;;9.07;1.73;;;12.60;99.90;;;;;;5033144;28;20491;-80
2021/10/06 11:49:14;;;;;;;8.30;1.67;;;12.70;99.90;;;;;;5048684;28;20465;-81
2021/10/06 11:51:44;;;;;;;7.30;1.40;;;12.80;99.90;;;;;;5054323;28;20453;-85
2021/10/06 11:54:12;;;;;;;7.47;1.47;;;12.80;99.90;;;;;;5055518;28;20534;-85
2021/10/06 11:56:39;;;;;;;8.73;1.80;;;12.90;99.90;;;;;;5055700;28;20523;-84
2021/10/06 11:59:15;;;;;;;8.47;1.70;;;12.90;99.90;;;;;;5056816;28;20461;-82
2021/10/06 12:01:52;;;;;;;9.50;1.77;;;13.00;99.90;;;;;;5059779;28;20486;-83
2021/10/06 12:04:21;;;;;;;7.60;1.63;;;13.00;99.90;;;;;;5038484;28;20457;-81
2021/10/06 12:06:55;;;;;;;9.37;1.87;;;13.00;99.90;;;;;;5032310;28;20712;-82
2021/10/06 12:09:25;;;;;;;10.80;2.10;;;13.00;99.90;;;;;;5042459;28;20469;-84
2021/10/06 12:11:52;;;;;;;8.93;2.00;;;13.00;99.90;;;;;;5053314;28;20843;-84
2021/10/06 12:14:24;;;;;;;8.80;2.07;;;13.10;99.90;;;;;;5045213;28;20471;-81
2021/10/06 12:17:06;;;;;;;11.10;2.70;;;13.20;99.90;;;;;;5028676;28;20563;-84
2021/10/06 12:19:38;;;;;;;9.37;2.30;;;13.20;99.90;;;;;;5027800;28;20453;-80
2021/10/06 12:22:06;;;;;;;8.27;1.67;;;13.30;99.90;;;;;;5040605;28;20475;-86
2021/10/06 12:24:40;;;;;;;8.93;1.97;;;13.20;99.90;;;;;;5044419;28;20455;-82
2021/10/06 12:27:08;;;;;;;8.20;1.60;;;13.20;99.90;;;;;;5017973;28;20471;-82
2021/10/06 12:29:36;;;;;;;8.33;1.80;;;13.10;99.90;;;;;;5034725;28;20449;-84
2021/10/06 12:32:17;;;;;;;10.60;1.70;;;13.10;99.90;;;;;;5038030;28;20476;-82
2021/10/06 12:34:45;;;;;;;9.50;2.27;;;13.10;99.90;;;;;;5037075;28;20540;-81
2021/10/06 12:37:14;;;;;;;8.30;1.80;;;13.20;99.90;;;;;;5032934;28;20578;-81
2021/10/06 12:39:43;;;;;;;9.03;1.93;;;13.10;99.90;;;;;;5041421;28;20460;-84
2021/10/06 12:42:10;;;;;;;8.80;2.00;;;13.10;99.90;;;;;;5050213;28;20505;-79
2021/10/06 12:44:44;;;;;;;11.20;1.73;;;13.50;99.90;;;;;;5035823;28;20437;-82
2021/10/06 12:47:13;;;;;;;7.93;1.50;;;15.10;99.90;;;;;;5031731;28;20483;-80